createdAt,value
2023-01-13T00:01:19.313Z,84.61
2023-01-13T00:03:46.101Z,84.80
2023-01-13T00:06:15.668Z,85.85
2023-01-13T00:08:42.507Z,85.98
2023-01-13T00:11:10.564Z,85.45
2023-01-13T00:13:39.380Z,85.04
2023-01-13T00:16:10.084Z,84.92
2023-01-13T00:18:37.069Z,85.90
2023-01-13T00:21:11.546Z,85.47
2023-01-13T00:23:39.627Z,84.15
2023-01-13T00:26:10.223Z,84.15
2023-01-13T00:28:37.516Z,85.57
2023-01-13T00:31:15.729Z,84.82
2023-01-13T00:33:42.999Z,85.25
2023-01-13T00:36:13.007Z,85.98
2023-01-13T00:38:40.595Z,86.41
2023-01-13T00:41:10.439Z,86.05
2023-01-13T00:43:38.181Z,86.54
2023-01-13T00:46:07.562Z,86.47
2023-01-13T00:48:35.269Z,87.14
2023-01-13T00:51:12.223Z,86.92
2023-01-13T00:53:41.346Z,86.16
2023-01-13T00:56:14.447Z,86.70
2023-01-13T00:58:42.437Z,86.94
2023-01-13T01:01:12.803Z,87.10
2023-01-13T01:03:40.198Z,86.47
2023-01-13T01:06:13.221Z,86.91
2023-01-13T01:08:40.437Z,87.65
2023-01-13T01:11:10.079Z,87.70
2023-01-13T01:13:37.731Z,88.45
2023-01-13T01:16:07.182Z,89.63
2023-01-13T01:18:36.175Z,89.30
2023-01-13T01:21:03.395Z,89.52
2023-01-13T01:23:31.036Z,89.63
2023-01-13T01:26:06.678Z,89.96
2023-01-13T01:28:34.759Z,89.80
2023-01-13T01:31:07.352Z,89.40
2023-01-13T01:33:34.468Z,89.78
2023-01-13T01:36:02.339Z,89.10
2023-01-13T01:38:29.203Z,88.63
2023-01-13T01:40:56.037Z,88.25
2023-01-13T01:44:02.666Z,88.03
2023-01-13T01:46:42.481Z,88.50
2023-01-13T01:49:21.596Z,88.23
2023-01-13T01:52:15.126Z,87.97
2023-01-13T01:54:52.763Z,87.84
2023-01-13T01:57:36.392Z,88.46
2023-01-13T02:00:04.438Z,87.66
2023-01-13T02:02:31.757Z,88.13
2023-01-13T02:04:59.958Z,89.26
2023-01-13T02:07:30.825Z,89.54
2023-01-13T02:10:01.404Z,90.48
2023-01-13T02:12:32.578Z,90.53
2023-01-13T02:15:07.765Z,90.60
2023-01-13T02:17:40.579Z,90.29
2023-01-13T02:20:45.136Z,89.65
2023-01-13T02:23:48.568Z,89.56
2023-01-13T02:26:53.547Z,89.29
2023-01-13T02:30:15.788Z,88.41
2023-01-13T02:33:01.022Z,88.25
2023-01-13T02:35:40.524Z,87.58
2023-01-13T02:38:11.307Z,86.83
2023-01-13T02:40:50.818Z,87.61
2023-01-13T02:43:46.586Z,87.44
2023-01-13T02:46:33.418Z,87.79
2023-01-13T02:49:07.295Z,87.14
2023-01-13T02:51:35.663Z,87.45
2023-01-13T02:54:09.185Z,87.14
2023-01-13T02:56:42.980Z,86.45
2023-01-13T02:59:10.681Z,87.13
2023-01-13T03:01:37.655Z,87.30
2023-01-13T03:04:16.388Z,87.19
2023-01-13T03:06:57.585Z,86.41
2023-01-13T03:09:39.019Z,86.36
2023-01-13T03:12:14.592Z,86.03
2023-01-13T03:14:56.424Z,87.33
2023-01-13T03:17:38.179Z,87.58
2023-01-13T03:20:18.259Z,86.71
2023-01-13T03:23:11.027Z,86.08
2023-01-13T03:25:43.628Z,85.57
2023-01-13T03:28:25.815Z,86.09
2023-01-13T03:31:02.036Z,85.12
2023-01-13T03:33:36.989Z,85.63
2023-01-13T03:36:09.987Z,86.22
2023-01-13T03:38:48.540Z,85.69
2023-01-13T03:41:36.902Z,86.63
2023-01-13T03:44:24.812Z,86.01
2023-01-13T03:47:13.239Z,86.93
2023-01-13T03:49:47.279Z,87.08
2023-01-13T03:52:22.517Z,86.34
2023-01-13T03:54:55.079Z,85.82
2023-01-13T03:57:29.307Z,86.43
2023-01-13T04:00:01.067Z,86.95
2023-01-13T04:02:43.184Z,86.23
2023-01-13T04:05:10.927Z,86.21
2023-01-13T04:07:51.443Z,85.97
2023-01-13T04:10:44.840Z,85.91
2023-01-13T04:13:16.705Z,86.07
2023-01-13T04:15:46.122Z,85.99
2023-01-13T04:18:27.440Z,85.54
2023-01-13T04:20:56.962Z,84.77
2023-01-13T04:23:23.944Z,85.52
2023-01-13T04:25:52.245Z,84.98
2023-01-13T04:28:20.000Z,85.19
2023-01-13T04:30:47.626Z,85.52
2023-01-13T04:33:16.427Z,84.09
2023-01-13T04:35:44.988Z,84.69
2023-01-13T04:38:17.705Z,85.15
2023-01-13T04:40:44.706Z,85.41
2023-01-13T04:43:12.309Z,84.80
2023-01-13T04:45:39.426Z,85.26
2023-01-13T04:48:06.592Z,84.71
2023-01-13T04:50:34.027Z,84.69
2023-01-13T04:53:01.391Z,84.24
2023-01-13T04:55:29.728Z,83.33
2023-01-13T04:58:01.028Z,84.75
2023-01-13T05:00:27.913Z,83.99
2023-01-13T05:02:54.708Z,83.73
2023-01-13T05:05:21.547Z,84.18
2023-01-13T05:07:48.428Z,84.08
2023-01-13T05:10:15.543Z,84.17
2023-01-13T05:13:00.860Z,83.17
2023-01-13T05:15:46.460Z,84.63
2023-01-13T05:18:13.541Z,84.00
2023-01-13T05:20:40.434Z,84.12
2023-01-13T05:23:25.667Z,83.95
2023-01-13T05:25:52.780Z,83.77
2023-01-13T05:28:19.670Z,83.42
2023-01-13T05:30:49.512Z,83.72
2023-01-13T05:33:18.451Z,83.58
2023-01-13T05:35:46.820Z,83.41
2023-01-13T05:38:14.546Z,83.47
2023-01-13T05:41:00.588Z,82.81
2023-01-13T05:43:28.166Z,83.44
2023-01-13T05:46:00.707Z,82.71
2023-01-13T05:48:30.901Z,84.41
2023-01-13T05:50:58.151Z,83.60
2023-01-13T05:53:25.769Z,83.28
2023-01-13T05:55:53.347Z,84.37
2023-01-13T05:58:22.235Z,84.72
2023-01-13T06:00:49.918Z,84.26
2023-01-13T06:03:17.413Z,84.36
2023-01-13T06:05:44.383Z,83.56
2023-01-13T06:08:11.275Z,83.64
2023-01-13T06:10:38.113Z,84.35
2023-01-13T06:13:05.679Z,84.85
2023-01-13T06:15:33.309Z,85.30
2023-01-13T06:18:03.031Z,86.03
2023-01-13T06:20:29.885Z,86.14
2023-01-13T06:22:56.794Z,88.55
2023-01-13T06:25:53.481Z,90.44
2023-01-13T06:28:20.315Z,91.68
2023-01-13T06:30:50.953Z,92.60
2023-01-13T06:33:24.094Z,93.35
2023-01-13T06:35:56.269Z,93.97
2023-01-13T06:38:27.916Z,94.46
2023-01-13T06:40:55.329Z,94.81
2023-01-13T06:43:22.527Z,95.39
2023-01-13T06:45:56.722Z,95.21
2023-01-13T06:48:28.270Z,94.74
2023-01-13T06:50:54.997Z,95.14
2023-01-13T06:53:21.749Z,95.53
2023-01-13T06:55:48.628Z,95.57
2023-01-13T06:58:15.701Z,89.94
2023-01-13T07:00:43.158Z,87.91
2023-01-13T07:03:13.713Z,87.51
2023-01-13T07:05:41.785Z,88.29
2023-01-13T07:08:09.839Z,87.89
2023-01-13T07:10:37.764Z,83.31
2023-01-13T07:13:25.258Z,84.00
2023-01-13T07:16:00.495Z,85.79
2023-01-13T07:18:31.707Z,85.06
2023-01-13T07:21:04.675Z,85.11
2023-01-13T07:23:35.068Z,85.32
2023-01-13T07:26:02.550Z,86.09
2023-01-13T07:28:31.001Z,85.94
2023-01-13T07:30:58.956Z,82.84
2023-01-13T07:33:26.065Z,83.33
2023-01-13T07:36:04.942Z,82.40
2023-01-13T07:38:33.255Z,85.29
2023-01-13T07:41:23.316Z,83.50
2023-01-13T07:43:50.821Z,85.83
2023-01-13T07:46:19.303Z,85.24
2023-01-13T07:48:48.187Z,85.78
2023-01-13T07:51:15.525Z,86.56
2023-01-13T07:53:42.516Z,87.59
2023-01-13T07:56:09.595Z,87.64
2023-01-13T07:58:37.864Z,86.22
2023-01-13T08:01:13.550Z,83.82
2023-01-13T08:03:41.510Z,85.51
2023-01-13T08:06:10.110Z,84.19
2023-01-13T08:08:37.832Z,82.90
2023-01-13T08:11:08.687Z,82.87
2023-01-13T08:13:36.039Z,81.33
2023-01-13T08:16:08.969Z,84.71
2023-01-13T08:18:37.151Z,83.14
2023-01-13T08:21:08.113Z,81.33
2023-01-13T08:23:37.838Z,83.85
2023-01-13T08:26:08.114Z,83.75
2023-01-13T08:28:35.479Z,84.18
2023-01-13T08:31:04.190Z,84.73
2023-01-13T08:33:31.848Z,85.09
2023-01-13T08:35:59.671Z,85.25
2023-01-13T08:38:26.887Z,85.82
2023-01-13T08:40:54.131Z,85.72
2023-01-13T08:43:21.349Z,85.49
2023-01-13T08:46:00.446Z,86.02
2023-01-13T08:48:31.215Z,86.59
2023-01-13T08:51:06.846Z,86.37
2023-01-13T08:53:33.971Z,87.01
2023-01-13T08:56:01.185Z,85.59
2023-01-13T08:58:28.410Z,85.62
2023-01-13T09:00:55.288Z,85.96
2023-01-13T09:03:22.229Z,85.07
2023-01-13T09:05:49.309Z,85.32
2023-01-13T09:08:16.398Z,84.76
2023-01-13T09:10:43.569Z,84.10
2023-01-13T09:13:13.850Z,85.81
2023-01-13T09:15:50.179Z,83.88
2023-01-13T09:18:17.158Z,84.36
2023-01-13T09:20:44.729Z,84.15
2023-01-13T09:23:11.926Z,84.20
2023-01-13T09:25:40.083Z,84.46
2023-01-13T09:28:08.917Z,83.64
2023-01-13T09:30:37.192Z,82.51
2023-01-13T09:33:22.468Z,82.55
2023-01-13T09:35:49.461Z,84.69
2023-01-13T09:38:16.562Z,83.92
2023-01-13T09:40:44.378Z,82.90
2023-01-13T09:43:47.432Z,80.89
2023-01-13T09:46:44.534Z,82.08
2023-01-13T09:49:21.158Z,79.80
2023-01-13T09:52:19.543Z,80.46
2023-01-13T09:54:55.256Z,79.63
2023-01-13T09:57:22.250Z,79.68
2023-01-13T09:59:49.586Z,76.87
2023-01-13T10:02:31.704Z,80.55
2023-01-13T10:05:11.006Z,76.50
2023-01-13T10:07:45.155Z,79.85
2023-01-13T10:10:22.151Z,76.88
2023-01-13T10:13:09.705Z,79.87
2023-01-13T10:15:36.772Z,74.40
2023-01-13T10:18:16.022Z,75.58
2023-01-13T10:21:12.429Z,78.62
2023-01-13T10:23:47.668Z,78.12
2023-01-13T10:26:15.094Z,77.75
2023-01-13T10:28:42.111Z,79.37
2023-01-13T10:31:20.068Z,82.54
2023-01-13T10:33:47.558Z,77.85
2023-01-13T10:36:17.828Z,79.65
2023-01-13T10:38:50.104Z,77.10
2023-01-13T10:41:20.086Z,78.39
2023-01-13T10:44:15.269Z,80.37
2023-01-13T10:46:59.931Z,73.49
2023-01-13T10:49:36.753Z,72.55
2023-01-13T10:52:24.022Z,75.68
2023-01-13T10:54:55.145Z,75.38
2023-01-13T10:57:25.525Z,74.18
2023-01-13T10:59:53.993Z,73.17
2023-01-13T11:02:28.019Z,75.91
2023-01-13T11:05:02.935Z,79.60
2023-01-13T11:07:41.879Z,71.92
2023-01-13T11:10:29.194Z,75.42
2023-01-13T11:13:06.351Z,75.21
2023-01-13T11:16:12.857Z,75.30
2023-01-13T11:19:12.180Z,75.08
2023-01-13T11:22:11.847Z,72.97
2023-01-13T11:24:51.790Z,77.27
2023-01-13T11:27:43.066Z,75.48
2023-01-13T11:30:30.022Z,71.98
2023-01-13T11:33:15.346Z,72.67
2023-01-13T11:35:45.542Z,71.94
2023-01-13T11:38:38.893Z,72.82
2023-01-13T11:41:45.508Z,73.90
2023-01-13T11:44:28.897Z,70.61
2023-01-13T11:46:56.345Z,67.28
2023-01-13T11:49:29.621Z,70.16
2023-01-13T11:52:04.852Z,66.75
2023-01-13T11:55:12.372Z,66.89
2023-01-13T11:57:50.270Z,65.22
2023-01-13T12:00:23.591Z,66.96
2023-01-13T12:03:14.967Z,70.07
2023-01-13T12:05:48.703Z,68.52
2023-01-13T12:08:26.464Z,69.52
2023-01-13T12:10:59.468Z,58.06
2023-01-13T12:13:45.114Z,58.73
2023-01-13T12:16:32.183Z,59.27
2023-01-13T12:19:11.385Z,62.88
2023-01-13T12:22:01.109Z,65.63
2023-01-13T12:25:04.300Z,70.22
2023-01-13T12:27:52.388Z,68.76
2023-01-13T12:30:46.055Z,62.86
2023-01-13T12:33:29.592Z,63.15
2023-01-13T12:36:35.365Z,65.87
2023-01-13T12:39:32.891Z,68.44
2023-01-13T12:42:24.367Z,62.88
2023-01-13T12:45:25.188Z,60.27
2023-01-13T12:47:53.733Z,58.26
2023-01-13T12:50:26.465Z,59.14
2023-01-13T12:52:54.470Z,61.46
2023-01-13T12:55:36.686Z,66.41
2023-01-13T12:58:06.365Z,61.77
2023-01-13T13:00:42.101Z,62.35
2023-01-13T13:03:13.750Z,65.41
2023-01-13T13:05:56.092Z,66.84
2023-01-13T13:08:38.271Z,66.25
2023-01-13T13:11:32.851Z,68.37
2023-01-13T13:14:01.982Z,67.46
2023-01-13T13:16:30.398Z,68.76
2023-01-13T13:19:16.150Z,67.78
2023-01-13T13:22:18.517Z,68.22
2023-01-13T13:24:51.447Z,67.28
2023-01-13T13:27:45.237Z,67.04
2023-01-13T13:30:14.733Z,70.37
2023-01-13T13:33:06.676Z,70.32
2023-01-13T13:35:44.673Z,69.88
2023-01-13T13:38:53.381Z,66.84
2023-01-13T13:41:41.586Z,68.89
2023-01-13T13:44:41.373Z,65.98
2023-01-13T13:47:08.457Z,70.13
2023-01-13T13:49:42.664Z,71.35
2023-01-13T13:52:23.043Z,73.95
2023-01-13T13:59:12.290Z,73.91
2023-01-13T14:01:43.485Z,72.41
2023-01-13T14:04:21.340Z,75.49
2023-01-13T14:07:21.795Z,75.84
2023-01-13T14:09:56.771Z,79.03
2023-01-13T14:12:26.337Z,76.85
2023-01-13T14:14:57.805Z,78.14
2023-01-13T14:17:30.525Z,77.41
2023-01-13T14:20:05.348Z,75.93
2023-01-13T14:22:33.440Z,73.15
2023-01-13T14:25:02.171Z,75.60
2023-01-13T14:27:31.083Z,74.95
2023-01-13T14:30:00.650Z,78.52
2023-01-13T14:32:35.436Z,70.03
2023-01-13T14:35:05.703Z,72.02
2023-01-13T14:37:35.564Z,70.13
2023-01-13T14:40:03.214Z,69.98
2023-01-13T14:42:31.822Z,70.13
2023-01-13T14:44:59.371Z,73.12
2023-01-13T14:47:29.299Z,72.00
2023-01-13T14:50:19.819Z,70.59
2023-01-13T14:52:57.856Z,71.21
2023-01-13T14:55:40.882Z,71.35
2023-01-13T14:58:20.622Z,71.41
2023-01-13T15:00:47.653Z,69.28
2023-01-13T15:03:16.578Z,70.00
2023-01-13T15:05:47.940Z,71.14
2023-01-13T15:08:14.742Z,72.94
2023-01-13T15:10:50.204Z,71.45
2023-01-13T15:13:22.928Z,69.52
2023-01-13T15:15:51.999Z,67.66
2023-01-13T15:18:18.926Z,68.02
2023-01-13T15:20:46.324Z,69.40
2023-01-13T15:23:20.542Z,74.14
2023-01-13T15:28:32.652Z,68.02
2023-01-13T15:31:10.021Z,73.38
2023-01-13T15:33:49.021Z,68.24
2023-01-13T15:36:30.290Z,70.67
2023-01-13T15:39:04.106Z,72.02
2023-01-13T15:41:49.671Z,72.35
2023-01-13T15:44:38.770Z,76.17
2023-01-13T15:47:14.647Z,71.05
2023-01-13T15:49:44.337Z,71.81
2023-01-13T15:52:28.931Z,71.50
2023-01-13T15:54:55.926Z,70.47
2023-01-13T15:57:35.787Z,73.19
2023-01-13T16:00:20.496Z,71.54
2023-01-13T16:02:48.118Z,75.92
2023-01-13T16:05:18.326Z,75.57
2023-01-13T16:07:55.935Z,73.72
2023-01-13T16:10:28.300Z,75.27
2023-01-13T16:13:02.059Z,77.08
2023-01-13T16:15:32.943Z,76.20
2023-01-13T16:18:03.712Z,76.41
2023-01-13T16:20:30.856Z,74.16
2023-01-13T16:23:02.527Z,72.07
2023-01-13T16:25:35.836Z,74.75
2023-01-13T16:28:02.971Z,71.21
2023-01-13T16:30:39.046Z,71.54
2023-01-13T16:33:13.975Z,74.42
2023-01-13T16:36:09.897Z,76.51
2023-01-13T16:38:28.101Z,74.55
2023-01-13T16:40:58.466Z,71.31
2023-01-13T16:43:25.554Z,74.04
2023-01-13T16:45:55.934Z,76.45
2023-01-13T16:48:25.116Z,74.63
2023-01-13T16:50:52.228Z,74.11
2023-01-13T16:53:25.181Z,73.81
2023-01-13T16:55:55.876Z,74.33
2023-01-13T16:58:26.230Z,74.74
2023-01-13T17:00:53.804Z,76.75
2023-01-13T17:03:21.045Z,78.54
2023-01-13T17:05:48.167Z,77.01
2023-01-13T17:08:18.298Z,77.46
2023-01-13T17:10:46.515Z,78.23
2023-01-13T17:13:16.842Z,77.62
2023-01-13T17:15:45.531Z,78.00
2023-01-13T17:18:13.764Z,78.16
2023-01-13T17:20:41.489Z,77.98
2023-01-13T17:23:08.744Z,78.76
2023-01-13T17:25:35.763Z,80.06
2023-01-13T17:31:55.147Z,77.75
2023-01-13T17:34:22.499Z,78.48
2023-01-13T17:40:37.501Z,77.66
2023-01-13T17:43:04.655Z,78.17
2023-01-13T17:45:34.344Z,79.17
2023-01-13T17:48:02.055Z,79.05
2023-01-13T17:50:30.940Z,77.53
2023-01-13T17:57:27.245Z,78.06
2023-01-13T17:59:55.377Z,77.87
2023-01-13T18:02:22.490Z,77.26
2023-01-13T18:04:49.579Z,76.71
2023-01-13T18:07:16.502Z,75.90
2023-01-13T18:09:43.337Z,77.25
2023-01-13T18:12:10.757Z,77.83
2023-01-13T18:14:37.612Z,78.09
2023-01-13T18:17:04.671Z,77.90
2023-01-13T18:19:50.354Z,79.11
2023-01-13T18:22:35.975Z,78.18
2023-01-13T18:25:22.126Z,79.08
2023-01-13T18:27:49.135Z,78.95
2023-01-13T18:30:16.403Z,78.49
2023-01-13T18:32:43.490Z,78.90
2023-01-13T18:35:10.593Z,78.26
2023-01-13T18:37:40.707Z,76.92
2023-01-13T18:40:10.014Z,76.21
2023-01-13T18:42:54.505Z,77.20
2023-01-13T18:45:28.301Z,77.57
2023-01-13T18:47:58.892Z,77.60
2023-01-13T18:50:26.060Z,78.78
2023-01-13T18:52:52.941Z,78.71
2023-01-13T18:55:20.667Z,79.61
2023-01-13T18:57:47.993Z,78.59
2023-01-13T19:00:18.457Z,79.30
2023-01-13T19:02:47.645Z,79.85
2023-01-13T19:05:14.772Z,78.33
2023-01-13T19:07:43.572Z,78.12
2023-01-13T19:10:13.027Z,78.89
2023-01-13T19:12:40.042Z,77.76
2023-01-13T19:15:07.986Z,78.76
2023-01-13T19:17:35.950Z,77.80
2023-01-13T19:20:04.684Z,78.14
2023-01-13T19:22:35.134Z,80.34
2023-01-13T19:25:03.319Z,80.98
2023-01-13T19:27:31.105Z,81.70
2023-01-13T19:30:00.618Z,82.40
2023-01-13T19:32:28.669Z,82.42
2023-01-13T19:34:59.328Z,82.34
2023-01-13T19:37:31.664Z,82.55
2023-01-13T19:39:59.406Z,82.71
2023-01-13T19:42:45.557Z,82.87
2023-01-13T19:45:30.787Z,83.19
2023-01-13T19:48:01.984Z,83.40
2023-01-13T19:50:29.430Z,83.20
2023-01-13T19:52:56.303Z,82.57
2023-01-13T19:55:24.415Z,83.88
2023-01-13T19:57:51.351Z,82.91
2023-01-13T20:00:20.928Z,83.14
2023-01-13T20:02:49.677Z,83.21
2023-01-13T20:05:21.406Z,81.92
2023-01-13T20:07:50.135Z,83.11
2023-01-13T20:10:19.450Z,83.81
2023-01-13T20:12:46.480Z,83.66
2023-01-13T20:15:13.971Z,83.34
2023-01-13T20:17:41.766Z,81.41
2023-01-13T20:20:10.074Z,82.33
2023-01-13T20:22:38.462Z,82.76
2023-01-13T20:25:05.705Z,82.34
2023-01-13T20:27:32.707Z,82.54
2023-01-13T20:30:00.153Z,82.22
2023-01-13T20:32:27.013Z,80.88
2023-01-13T20:34:53.823Z,80.60
2023-01-13T20:37:20.666Z,81.37
2023-01-13T20:39:48.615Z,80.88
2023-01-13T20:42:30.761Z,81.35
2023-01-13T20:44:58.927Z,81.70
2023-01-13T20:47:27.011Z,80.23
2023-01-13T20:49:53.984Z,80.98
2023-01-13T20:52:21.047Z,81.69
2023-01-13T20:54:47.963Z,79.73
2023-01-13T20:57:14.913Z,80.19
2023-01-13T20:59:42.109Z,80.05
2023-01-13T21:02:13.800Z,78.75
2023-01-13T21:04:40.933Z,78.75
2023-01-13T21:07:08.217Z,78.90
2023-01-13T21:09:35.082Z,78.63
2023-01-13T21:12:20.643Z,79.04
2023-01-13T21:15:05.918Z,78.72
2023-01-13T21:17:51.584Z,79.02
2023-01-13T21:20:18.600Z,79.29
2023-01-13T21:22:47.439Z,78.89
2023-01-13T21:25:15.621Z,79.17
2023-01-13T21:27:44.185Z,79.30
2023-01-13T21:30:15.125Z,78.69
2023-01-13T21:32:43.253Z,77.75
2023-01-13T21:35:11.500Z,78.42
2023-01-13T21:37:39.735Z,78.15
2023-01-13T21:40:09.221Z,78.35
2023-01-13T21:42:54.795Z,78.05
2023-01-13T21:45:40.344Z,79.42
2023-01-13T21:48:07.705Z,79.03
2023-01-13T21:50:34.642Z,77.94
2023-01-13T21:53:01.917Z,77.70
2023-01-13T21:55:29.450Z,78.04
2023-01-13T21:57:58.697Z,78.31
2023-01-13T22:00:28.579Z,78.36
2023-01-13T22:02:56.249Z,78.03
2023-01-13T22:05:25.248Z,79.07
2023-01-13T22:07:52.374Z,79.85
2023-01-13T22:10:24.543Z,78.96
2023-01-13T22:12:56.189Z,78.82
2023-01-13T22:15:29.375Z,78.64
2023-01-13T22:17:57.188Z,79.79
2023-01-13T22:20:24.328Z,80.39
2023-01-13T22:22:51.198Z,80.49
2023-01-13T22:25:20.348Z,80.23
2023-01-13T22:27:49.246Z,78.85
2023-01-13T22:30:21.969Z,80.11
2023-01-13T22:32:50.095Z,79.76
2023-01-13T22:35:17.083Z,80.45
2023-01-13T22:37:44.142Z,80.40
2023-01-13T22:40:12.349Z,79.82
2023-01-13T22:42:41.189Z,80.30
2023-01-13T22:45:11.322Z,81.06
2023-01-13T22:47:38.371Z,80.78
2023-01-13T22:50:06.400Z,80.10
2023-01-13T22:52:34.248Z,80.07
2023-01-13T22:55:01.557Z,80.12
2023-01-13T22:57:36.277Z,79.70
2023-01-13T23:00:06.769Z,80.55
2023-01-13T23:02:34.739Z,78.84
2023-01-13T23:05:01.964Z,78.20
2023-01-13T23:07:29.030Z,78.52
2023-01-13T23:09:55.800Z,79.47
2023-01-13T23:12:22.639Z,80.75
2023-01-13T23:14:49.583Z,81.00
2023-01-13T23:17:16.419Z,79.77
2023-01-13T23:19:43.209Z,79.44
2023-01-13T23:22:09.991Z,79.63
2023-01-13T23:24:36.843Z,79.71
2023-01-13T23:27:03.901Z,79.25
2023-01-13T23:29:30.848Z,80.26
2023-01-13T23:31:57.653Z,79.58
2023-01-13T23:34:24.558Z,80.83
2023-01-13T23:36:51.443Z,81.18
2023-01-13T23:39:18.352Z,80.72
2023-01-13T23:41:45.204Z,81.23
2023-01-13T23:44:12.020Z,81.38
2023-01-13T23:46:38.934Z,81.18
2023-01-13T23:49:05.770Z,80.48
2023-01-13T23:51:32.879Z,80.80
2023-01-13T23:54:00.017Z,80.83
2023-01-13T23:56:30.397Z,81.68
2023-01-13T23:58:57.559Z,81.43
